Terminal Aerodrome Forecast
Issued by NWS Sioux Falls, SD

Home | Current Version | Previous Version | Graphics & Text | Print | Product List | Glossary On
Versions: 1 2 3 4 5 6 7 8 9 10 11 12 13 14 15 16 17 18 19 20
000
FTUS43 KFSD 221637 AAE
TAFHON
TAF AMD
KHON 221637Z 2217/2312 19009KT P6SM SCT003
     FM221700 18009KT P6SM SCT200
     FM230300 20007KT P6SM BKN100=

USA.gov is the U.S. government's official web portal to all federal, state and local government web resources and services.